This is the latest recevied weather packets stored in our database for station/object YO6LRV-3. If no packets are shown the sender has not sent any weather packets the latest 10 day(s).
| Time | Temp. | Humidity | Pressure | Rain* | Wind** | Luminosity | Snow |
|---|---|---|---|---|---|---|---|
| 1778080874 | 26.67° C | 32% | 1010.4 hPa | - | - | - | - |
| 1778079974 | 27.22° C | 31% | 1011 hPa | - | - | - | - |
| 1778079067 | 28.33° C | 29% | 1011.2 hPa | - | - | - | - |
| 1778078167 | 28.33° C | 27% | 1011.2 hPa | - | - | - | - |
| 1778077266 | 28.89° C | 26% | 1011.2 hPa | - | - | - | - |
| 1778076367 | 28.89° C | 26% | 1011.3 hPa | - | - | - | - |
| 1778075473 | 29.44° C | 27% | 1011.3 hPa | - | - | - | - |
| 1778074566 | 30° C | 27% | 1011.5 hPa | - | - | - | - |
| 1778073673 | 30.56° C | 26% | 1011.5 hPa | - | - | - | - |
| 1778072775 | 31.11° C | 24% | 1011.7 hPa | - | - | - | - |
| 1778071875 | 31.67° C | 25% | 1011.7 hPa | - | - | - | - |
| 1778070975 | 32.22° C | 25% | 1011.8 hPa | - | - | - | - |
| 1778070075 | 32.78° C | 27% | 1012.1 hPa | - | - | - | - |
| 1778069175 | 32.22° C | 26% | 1012.2 hPa | - | - | - | - |
| 1778068274 | 32.22° C | 26% | 1012.5 hPa | - | - | - | - |
| 1778067374 | 31.67° C | 27% | 1012.5 hPa | - | - | - | - |
| 1778066474 | 31.11° C | 27% | 1012.2 hPa | - | - | - | - |
| 1778065574 | 30° C | 30% | 1012.2 hPa | - | - | - | - |
| 1778064674 | 29.44° C | 31% | 1013 hPa | - | - | - | - |
| 1778063774 | 28.33° C | 32% | 1013.2 hPa | - | - | - | - |
| 1778062874 | 26.67° C | 34% | 1013.3 hPa | - | - | - | - |
| 1778061973 | 25° C | 37% | 1013.2 hPa | - | - | - | - |
| 1778060173 | 22.78° C | 40% | 1013.6 hPa | - | - | - | - |
| 1778059273 | 22.22° C | 42% | 1013.6 hPa | - | - | - | - |
| 1778058373 | 21.67° C | 42% | 1013.7 hPa | - | - | - | - |
* Rain since midnight (hover to see other rain measurements)
** Current wind speed in m/s (hover to see current wind gust speed)